sensor_id;sensor_type;location;lat;lon;timestamp;P1;durP1;ratioP1;P2;durP2;ratioP2
77948;SDS011;67146;51.236;-0.336;2024-02-21T00:02:02;8.27;;;0.80;;
77948;SDS011;67146;51.236;-0.336;2024-02-21T00:04:28;10.80;;;0.90;;
77948;SDS011;67146;51.236;-0.336;2024-02-21T00:06:53;8.20;;;0.57;;
77948;SDS011;67146;51.236;-0.336;2024-02-21T00:09:19;8.88;;;1.13;;
77948;SDS011;67146;51.236;-0.336;2024-02-21T00:11:45;8.90;;;0.93;;
77948;SDS011;67146;51.236;-0.336;2024-02-21T00:14:10;11.85;;;1.30;;
77948;SDS011;67146;51.236;-0.336;2024-02-21T00:16:36;14.20;;;1.52;;
77948;SDS011;67146;51.236;-0.336;2024-02-21T00:19:01;8.38;;;0.85;;
77948;SDS011;67146;51.236;-0.336;2024-02-21T00:21:27;14.60;;;1.17;;
77948;SDS011;67146;51.236;-0.336;2024-02-21T00:23:52;11.70;;;1.52;;
77948;SDS011;67146;51.236;-0.336;2024-02-21T00:26:17;10.93;;;1.23;;
77948;SDS011;67146;51.236;-0.336;2024-02-21T00:28:43;8.90;;;0.75;;
77948;SDS011;67146;51.236;-0.336;2024-02-21T00:31:08;9.63;;;1.63;;
77948;SDS011;67146;51.236;-0.336;2024-02-21T00:33:34;7.70;;;0.95;;
77948;SDS011;67146;51.236;-0.336;2024-02-21T00:35:59;11.55;;;1.15;;
77948;SDS011;67146;51.236;-0.336;2024-02-21T00:38:25;9.98;;;1.15;;
77948;SDS011;67146;51.236;-0.336;2024-02-21T00:40:50;8.13;;;1.35;;
77948;SDS011;67146;51.236;-0.336;2024-02-21T00:43:15;12.15;;;1.00;;
77948;SDS011;67146;51.236;-0.336;2024-02-21T00:45:41;13.50;;;1.73;;
77948;SDS011;67146;51.236;-0.336;2024-02-21T00:48:06;8.35;;;1.05;;
77948;SDS011;67146;51.236;-0.336;2024-02-21T00:50:32;8.07;;;1.00;;
77948;SDS011;67146;51.236;-0.336;2024-02-21T00:52:57;9.88;;;1.27;;
77948;SDS011;67146;51.236;-0.336;2024-02-21T00:55:23;13.88;;;1.45;;
77948;SDS011;67146;51.236;-0.336;2024-02-21T00:57:48;11.10;;;1.33;;
77948;SDS011;67146;51.236;-0.336;2024-02-21T01:00:14;7.65;;;0.75;;
77948;SDS011;67146;51.236;-0.336;2024-02-21T01:02:39;8.40;;;0.98;;
77948;SDS011;67146;51.236;-0.336;2024-02-21T01:05:05;7.57;;;0.85;;
77948;SDS011;67146;51.236;-0.336;2024-02-21T01:07:31;12.50;;;1.73;;
77948;SDS011;67146;51.236;-0.336;2024-02-21T01:09:56;7.53;;;1.23;;
77948;SDS011;67146;51.236;-0.336;2024-02-21T01:12:22;6.50;;;1.35;;
77948;SDS011;67146;51.236;-0.336;2024-02-21T01:14:47;7.55;;;0.90;;
77948;SDS011;67146;51.236;-0.336;2024-02-21T01:17:14;11.55;;;0.80;;
77948;SDS011;67146;51.236;-0.336;2024-02-21T01:19:39;10.75;;;1.20;;
77948;SDS011;67146;51.236;-0.336;2024-02-21T01:22:05;8.88;;;1.13;;
77948;SDS011;67146;51.236;-0.336;2024-02-21T01:24:31;12.90;;;1.25;;
77948;SDS011;67146;51.236;-0.336;2024-02-21T01:26:56;10.73;;;1.48;;
77948;SDS011;67146;51.236;-0.336;2024-02-21T01:29:21;12.10;;;1.25;;
77948;SDS011;67146;51.236;-0.336;2024-02-21T01:31:47;11.52;;;1.52;;
77948;SDS011;67146;51.236;-0.336;2024-02-21T01:34:13;4.88;;;0.80;;
77948;SDS011;67146;51.236;-0.336;2024-02-21T01:36:38;11.27;;;1.15;;
77948;SDS011;67146;51.236;-0.336;2024-02-21T01:39:04;14.82;;;1.67;;
77948;SDS011;67146;51.236;-0.336;2024-02-21T01:41:29;10.65;;;1.30;;
77948;SDS011;67146;51.236;-0.336;2024-02-21T01:43:55;9.20;;;1.40;;
77948;SDS011;67146;51.236;-0.336;2024-02-21T01:46:21;6.70;;;0.90;;
77948;SDS011;67146;51.236;-0.336;2024-02-21T01:48:47;17.70;;;0.98;;
77948;SDS011;67146;51.236;-0.336;2024-02-21T01:51:12;13.45;;;1.70;;
77948;SDS011;67146;51.236;-0.336;2024-02-21T01:53:40;12.90;;;1.33;;
77948;SDS011;67146;51.236;-0.336;2024-02-21T01:56:08;8.60;;;0.95;;
77948;SDS011;67146;51.236;-0.336;2024-02-21T01:58:34;8.50;;;1.40;;
77948;SDS011;67146;51.236;-0.336;2024-02-21T02:01:02;13.95;;;1.45;;
77948;SDS011;67146;51.236;-0.336;2024-02-21T02:03:28;10.80;;;1.60;;
77948;SDS011;67146;51.236;-0.336;2024-02-21T02:05:54;11.88;;;1.33;;
77948;SDS011;67146;51.236;-0.336;2024-02-21T02:08:20;12.10;;;1.20;;
77948;SDS011;67146;51.236;-0.336;2024-02-21T02:10:47;8.45;;;1.00;;
77948;SDS011;67146;51.236;-0.336;2024-02-21T02:13:12;9.70;;;1.05;;
77948;SDS011;67146;51.236;-0.336;2024-02-21T02:15:45;8.75;;;0.73;;
77948;SDS011;67146;51.236;-0.336;2024-02-21T02:18:11;12.30;;;1.67;;
77948;SDS011;67146;51.236;-0.336;2024-02-21T02:20:37;11.32;;;1.30;;
77948;SDS011;67146;51.236;-0.336;2024-02-21T02:23:10;8.50;;;0.95;;
77948;SDS011;67146;51.236;-0.336;2024-02-21T02:25:36;11.77;;;1.48;;
77948;SDS011;67146;51.236;-0.336;2024-02-21T02:28:03;12.48;;;1.20;;
77948;SDS011;67146;51.236;-0.336;2024-02-21T02:30:31;5.05;;;1.13;;
77948;SDS011;67146;51.236;-0.336;2024-02-21T02:32:57;8.57;;;1.45;;
77948;SDS011;67146;51.236;-0.336;2024-02-21T02:35:23;10.95;;;1.15;;
77948;SDS011;67146;51.236;-0.336;2024-02-21T02:37:49;6.22;;;1.20;;
77948;SDS011;67146;51.236;-0.336;2024-02-21T02:40:14;10.10;;;0.95;;
77948;SDS011;67146;51.236;-0.336;2024-02-21T02:42:40;4.90;;;0.68;;
77948;SDS011;67146;51.236;-0.336;2024-02-21T02:45:06;10.73;;;1.70;;
77948;SDS011;67146;51.236;-0.336;2024-02-21T02:47:31;6.07;;;0.90;;
77948;SDS011;67146;51.236;-0.336;2024-02-21T02:49:57;5.90;;;1.05;;
77948;SDS011;67146;51.236;-0.336;2024-02-21T02:52:22;9.73;;;1.27;;
77948;SDS011;67146;51.236;-0.336;2024-02-21T02:54:48;6.57;;;0.93;;
77948;SDS011;67146;51.236;-0.336;2024-02-21T02:57:17;13.20;;;1.35;;
77948;SDS011;67146;51.236;-0.336;2024-02-21T02:59:44;6.32;;;0.73;;
77948;SDS011;67146;51.236;-0.336;2024-02-21T03:02:13;9.00;;;1.00;;
77948;SDS011;67146;51.236;-0.336;2024-02-21T03:04:39;10.93;;;1.13;;
77948;SDS011;67146;51.236;-0.336;2024-02-21T03:07:05;8.10;;;0.88;;
77948;SDS011;67146;51.236;-0.336;2024-02-21T03:09:32;4.93;;;0.70;;
77948;SDS011;67146;51.236;-0.336;2024-02-21T03:11:58;11.68;;;1.42;;
77948;SDS011;67146;51.236;-0.336;2024-02-21T03:14:30;10.95;;;1.08;;
77948;SDS011;67146;51.236;-0.336;2024-02-21T03:19:24;10.07;;;1.13;;
77948;SDS011;67146;51.236;-0.336;2024-02-21T03:21:51;9.05;;;1.15;;
77948;SDS011;67146;51.236;-0.336;2024-02-21T03:24:16;8.65;;;1.02;;
77948;SDS011;67146;51.236;-0.336;2024-02-21T03:26:42;8.73;;;1.27;;
77948;SDS011;67146;51.236;-0.336;2024-02-21T03:29:15;8.18;;;1.10;;
77948;SDS011;67146;51.236;-0.336;2024-02-21T03:31:42;8.50;;;1.02;;
77948;SDS011;67146;51.236;-0.336;2024-02-21T03:34:10;8.60;;;1.70;;
77948;SDS011;67146;51.236;-0.336;2024-02-21T03:36:36;13.63;;;1.20;;
77948;SDS011;67146;51.236;-0.336;2024-02-21T03:39:01;8.35;;;1.17;;
77948;SDS011;67146;51.236;-0.336;2024-02-21T03:41:27;11.88;;;1.35;;
77948;SDS011;67146;51.236;-0.336;2024-02-21T03:43:52;3.95;;;0.75;;
77948;SDS011;67146;51.236;-0.336;2024-02-21T03:46:18;8.02;;;1.08;;
77948;SDS011;67146;51.236;-0.336;2024-02-21T03:48:43;8.55;;;1.42;;
77948;SDS011;67146;51.236;-0.336;2024-02-21T03:51:09;14.77;;;1.10;;
77948;SDS011;67146;51.236;-0.336;2024-02-21T03:53:34;7.35;;;0.98;;
77948;SDS011;67146;51.236;-0.336;2024-02-21T03:56:03;8.27;;;0.88;;
77948;SDS011;67146;51.236;-0.336;2024-02-21T04:00:54;9.18;;;0.77;;
77948;SDS011;67146;51.236;-0.336;2024-02-21T04:03:20;5.45;;;0.77;;
77948;SDS011;67146;51.236;-0.336;2024-02-21T04:05:45;5.82;;;0.52;;
77948;SDS011;67146;51.236;-0.336;2024-02-21T04:08:11;5.50;;;1.00;;
77948;SDS011;67146;51.236;-0.336;2024-02-21T04:10:36;5.90;;;0.68;;
77948;SDS011;67146;51.236;-0.336;2024-02-21T04:13:02;4.38;;;1.05;;
77948;SDS011;67146;51.236;-0.336;2024-02-21T04:15:27;7.13;;;1.13;;
77948;SDS011;67146;51.236;-0.336;2024-02-21T04:17:53;8.38;;;1.58;;
77948;SDS011;67146;51.236;-0.336;2024-02-21T04:20:18;10.18;;;0.90;;
77948;SDS011;67146;51.236;-0.336;2024-02-21T04:22:44;6.95;;;1.00;;
77948;SDS011;67146;51.236;-0.336;2024-02-21T04:25:10;7.53;;;1.10;;
77948;SDS011;67146;51.236;-0.336;2024-02-21T04:27:36;7.68;;;0.95;;
77948;SDS011;67146;51.236;-0.336;2024-02-21T04:30:02;5.10;;;0.60;;
77948;SDS011;67146;51.236;-0.336;2024-02-21T04:32:28;10.05;;;0.98;;
77948;SDS011;67146;51.236;-0.336;2024-02-21T04:34:53;7.38;;;0.90;;
77948;SDS011;67146;51.236;-0.336;2024-02-21T04:37:19;9.17;;;0.90;;
77948;SDS011;67146;51.236;-0.336;2024-02-21T04:39:45;7.05;;;0.60;;
77948;SDS011;67146;51.236;-0.336;2024-02-21T04:42:11;9.80;;;1.15;;
77948;SDS011;67146;51.236;-0.336;2024-02-21T04:44:36;7.82;;;1.00;;
77948;SDS011;67146;51.236;-0.336;2024-02-21T04:47:02;7.38;;;0.80;;
77948;SDS011;67146;51.236;-0.336;2024-02-21T04:49:28;3.80;;;0.52;;
77948;SDS011;67146;51.236;-0.336;2024-02-21T04:51:54;9.15;;;1.75;;
77948;SDS011;67146;51.236;-0.336;2024-02-21T04:54:19;8.20;;;1.10;;
77948;SDS011;67146;51.236;-0.336;2024-02-21T04:56:45;7.93;;;1.00;;
77948;SDS011;67146;51.236;-0.336;2024-02-21T04:59:10;10.82;;;1.48;;
77948;SDS011;67146;51.236;-0.336;2024-02-21T05:01:36;9.60;;;1.50;;
77948;SDS011;67146;51.236;-0.336;2024-02-21T05:04:01;7.03;;;0.68;;
77948;SDS011;67146;51.236;-0.336;2024-02-21T05:06:27;12.30;;;1.10;;
77948;SDS011;67146;51.236;-0.336;2024-02-21T05:08:53;9.13;;;0.85;;
77948;SDS011;67146;51.236;-0.336;2024-02-21T05:11:20;6.13;;;0.80;;
77948;SDS011;67146;51.236;-0.336;2024-02-21T05:13:46;5.93;;;0.50;;
77948;SDS011;67146;51.236;-0.336;2024-02-21T05:16:11;5.25;;;0.65;;
77948;SDS011;67146;51.236;-0.336;2024-02-21T05:18:36;9.43;;;1.33;;
77948;SDS011;67146;51.236;-0.336;2024-02-21T05:21:02;6.82;;;0.43;;
77948;SDS011;67146;51.236;-0.336;2024-02-21T05:23:27;6.07;;;0.85;;
77948;SDS011;67146;51.236;-0.336;2024-02-21T05:25:53;5.72;;;1.08;;
77948;SDS011;67146;51.236;-0.336;2024-02-21T05:28:18;8.77;;;1.73;;
77948;SDS011;67146;51.236;-0.336;2024-02-21T05:30:44;6.28;;;0.93;;
77948;SDS011;67146;51.236;-0.336;2024-02-21T05:33:09;6.85;;;1.00;;
77948;SDS011;67146;51.236;-0.336;2024-02-21T05:35:35;5.00;;;0.93;;
77948;SDS011;67146;51.236;-0.336;2024-02-21T05:38:01;6.85;;;1.45;;
77948;SDS011;67146;51.236;-0.336;2024-02-21T05:40:29;6.95;;;0.95;;
77948;SDS011;67146;51.236;-0.336;2024-02-21T05:42:54;5.88;;;0.68;;
77948;SDS011;67146;51.236;-0.336;2024-02-21T05:45:20;9.48;;;1.02;;
77948;SDS011;67146;51.236;-0.336;2024-02-21T05:47:45;5.22;;;0.60;;
77948;SDS011;67146;51.236;-0.336;2024-02-21T05:50:11;6.40;;;1.83;;
77948;SDS011;67146;51.236;-0.336;2024-02-21T05:52:36;10.68;;;0.80;;
77948;SDS011;67146;51.236;-0.336;2024-02-21T05:55:02;6.55;;;0.65;;
77948;SDS011;67146;51.236;-0.336;2024-02-21T05:57:28;4.97;;;0.93;;
77948;SDS011;67146;51.236;-0.336;2024-02-21T05:59:53;9.25;;;0.82;;
77948;SDS011;67146;51.236;-0.336;2024-02-21T06:02:18;9.10;;;1.73;;
77948;SDS011;67146;51.236;-0.336;2024-02-21T06:04:45;5.68;;;1.13;;
77948;SDS011;67146;51.236;-0.336;2024-02-21T06:07:11;5.85;;;0.77;;
77948;SDS011;67146;51.236;-0.336;2024-02-21T06:09:36;8.57;;;1.17;;
77948;SDS011;67146;51.236;-0.336;2024-02-21T06:12:02;6.47;;;0.55;;
77948;SDS011;67146;51.236;-0.336;2024-02-21T06:14:28;5.30;;;0.70;;
77948;SDS011;67146;51.236;-0.336;2024-02-21T06:16:53;4.60;;;0.68;;
77948;SDS011;67146;51.236;-0.336;2024-02-21T06:19:18;5.18;;;0.60;;
77948;SDS011;67146;51.236;-0.336;2024-02-21T06:21:44;5.63;;;0.73;;
77948;SDS011;67146;51.236;-0.336;2024-02-21T06:24:09;5.13;;;0.35;;
77948;SDS011;67146;51.236;-0.336;2024-02-21T06:26:35;3.15;;;0.47;;
77948;SDS011;67146;51.236;-0.336;2024-02-21T06:29:00;5.65;;;0.60;;
77948;SDS011;67146;51.236;-0.336;2024-02-21T06:31:27;3.33;;;0.57;;
77948;SDS011;67146;51.236;-0.336;2024-02-21T06:33:52;8.70;;;0.80;;
77948;SDS011;67146;51.236;-0.336;2024-02-21T06:36:23;3.63;;;0.63;;
77948;SDS011;67146;51.236;-0.336;2024-02-21T06:38:48;4.95;;;0.63;;
77948;SDS011;67146;51.236;-0.336;2024-02-21T06:41:17;6.68;;;0.90;;
77948;SDS011;67146;51.236;-0.336;2024-02-21T06:43:46;6.18;;;1.00;;
77948;SDS011;67146;51.236;-0.336;2024-02-21T06:46:12;10.48;;;0.65;;
77948;SDS011;67146;51.236;-0.336;2024-02-21T06:48:39;4.45;;;0.80;;
77948;SDS011;67146;51.236;-0.336;2024-02-21T06:51:15;8.50;;;0.68;;
77948;SDS011;67146;51.236;-0.336;2024-02-21T06:53:41;7.47;;;1.10;;
77948;SDS011;67146;51.236;-0.336;2024-02-21T06:56:09;4.93;;;0.75;;
77948;SDS011;67146;51.236;-0.336;2024-02-21T06:58:34;5.38;;;1.13;;
77948;SDS011;67146;51.236;-0.336;2024-02-21T07:01:00;5.38;;;0.55;;
77948;SDS011;67146;51.236;-0.336;2024-02-21T07:03:25;7.47;;;1.40;;
77948;SDS011;67146;51.236;-0.336;2024-02-21T07:05:51;4.50;;;0.50;;
77948;SDS011;67146;51.236;-0.336;2024-02-21T07:08:16;6.72;;;0.90;;
77948;SDS011;67146;51.236;-0.336;2024-02-21T07:10:42;6.57;;;0.63;;
77948;SDS011;67146;51.236;-0.336;2024-02-21T07:13:10;5.28;;;0.75;;
77948;SDS011;67146;51.236;-0.336;2024-02-21T07:15:38;3.15;;;0.47;;
77948;SDS011;67146;51.236;-0.336;2024-02-21T07:18:03;3.08;;;0.43;;
77948;SDS011;67146;51.236;-0.336;2024-02-21T07:20:29;6.53;;;0.93;;
77948;SDS011;67146;51.236;-0.336;2024-02-21T07:22:55;4.93;;;0.52;;
77948;SDS011;67146;51.236;-0.336;2024-02-21T07:25:23;4.68;;;1.00;;
77948;SDS011;67146;51.236;-0.336;2024-02-21T07:27:53;12.70;;;1.55;;
77948;SDS011;67146;51.236;-0.336;2024-02-21T07:30:18;3.72;;;0.80;;
77948;SDS011;67146;51.236;-0.336;2024-02-21T07:32:44;5.95;;;0.60;;
77948;SDS011;67146;51.236;-0.336;2024-02-21T07:35:09;6.30;;;0.63;;
77948;SDS011;67146;51.236;-0.336;2024-02-21T07:37:40;5.82;;;1.33;;
77948;SDS011;67146;51.236;-0.336;2024-02-21T07:40:14;7.15;;;0.98;;
77948;SDS011;67146;51.236;-0.336;2024-02-21T07:42:40;5.65;;;1.02;;
77948;SDS011;67146;51.236;-0.336;2024-02-21T07:45:08;3.78;;;0.75;;
77948;SDS011;67146;51.236;-0.336;2024-02-21T07:47:35;7.53;;;1.00;;
77948;SDS011;67146;51.236;-0.336;2024-02-21T07:50:05;7.55;;;1.00;;
77948;SDS011;67146;51.236;-0.336;2024-02-21T07:52:32;6.70;;;0.95;;
77948;SDS011;67146;51.236;-0.336;2024-02-21T07:55:00;9.57;;;1.13;;
77948;SDS011;67146;51.236;-0.336;2024-02-21T07:57:28;8.73;;;1.48;;
77948;SDS011;67146;51.236;-0.336;2024-02-21T07:59:56;4.90;;;0.70;;
77948;SDS011;67146;51.236;-0.336;2024-02-21T08:02:21;5.35;;;1.02;;
77948;SDS011;67146;51.236;-0.336;2024-02-21T08:04:46;7.05;;;1.70;;
77948;SDS011;67146;51.236;-0.336;2024-02-21T08:07:12;5.05;;;0.95;;
77948;SDS011;67146;51.236;-0.336;2024-02-21T08:09:39;5.43;;;0.90;;
77948;SDS011;67146;51.236;-0.336;2024-02-21T08:12:05;4.70;;;0.70;;
77948;SDS011;67146;51.236;-0.336;2024-02-21T08:14:31;7.85;;;1.00;;
77948;SDS011;67146;51.236;-0.336;2024-02-21T08:16:56;4.90;;;0.80;;
77948;SDS011;67146;51.236;-0.336;2024-02-21T08:19:22;8.75;;;0.82;;
77948;SDS011;67146;51.236;-0.336;2024-02-21T08:21:47;9.25;;;1.42;;
77948;SDS011;67146;51.236;-0.336;2024-02-21T08:24:16;10.45;;;1.10;;
77948;SDS011;67146;51.236;-0.336;2024-02-21T08:26:41;7.22;;;0.93;;
77948;SDS011;67146;51.236;-0.336;2024-02-21T08:29:09;3.40;;;0.50;;
77948;SDS011;67146;51.236;-0.336;2024-02-21T08:31:35;5.13;;;0.70;;
77948;SDS011;67146;51.236;-0.336;2024-02-21T08:34:00;4.43;;;0.65;;
77948;SDS011;67146;51.236;-0.336;2024-02-21T08:36:32;5.70;;;0.63;;
77948;SDS011;67146;51.236;-0.336;2024-02-21T08:38:58;6.00;;;0.57;;
77948;SDS011;67146;51.236;-0.336;2024-02-21T08:41:25;4.72;;;1.02;;
77948;SDS011;67146;51.236;-0.336;2024-02-21T09:00:35;6.53;;;0.52;;
77948;SDS011;67146;51.236;-0.336;2024-02-21T09:03:01;4.57;;;0.70;;
77948;SDS011;67146;51.236;-0.336;2024-02-21T09:05:26;7.32;;;1.00;;
77948;SDS011;67146;51.236;-0.336;2024-02-21T09:07:52;7.40;;;0.77;;
77948;SDS011;67146;51.236;-0.336;2024-02-21T09:10:29;4.70;;;0.90;;
77948;SDS011;67146;51.236;-0.336;2024-02-21T09:12:55;5.60;;;1.00;;
77948;SDS011;67146;51.236;-0.336;2024-02-21T09:15:21;7.47;;;1.40;;
77948;SDS011;67146;51.236;-0.336;2024-02-21T09:17:46;4.35;;;0.93;;
77948;SDS011;67146;51.236;-0.336;2024-02-21T09:20:11;6.97;;;0.90;;
77948;SDS011;67146;51.236;-0.336;2024-02-21T09:22:37;8.23;;;0.88;;
77948;SDS011;67146;51.236;-0.336;2024-02-21T09:25:07;7.00;;;0.90;;
77948;SDS011;67146;51.236;-0.336;2024-02-21T09:27:37;4.10;;;0.63;;
77948;SDS011;67146;51.236;-0.336;2024-02-21T09:30:09;6.93;;;0.98;;
77948;SDS011;67146;51.236;-0.336;2024-02-21T09:32:34;4.32;;;0.65;;
77948;SDS011;67146;51.236;-0.336;2024-02-21T09:38:36;5.13;;;0.50;;
77948;SDS011;67146;51.236;-0.336;2024-02-21T09:41:14;6.03;;;0.52;;
77948;SDS011;67146;51.236;-0.336;2024-02-21T09:43:44;6.25;;;0.57;;
77948;SDS011;67146;51.236;-0.336;2024-02-21T09:46:16;5.28;;;0.70;;
77948;SDS011;67146;51.236;-0.336;2024-02-21T09:51:44;5.68;;;0.50;;
77948;SDS011;67146;51.236;-0.336;2024-02-21T09:54:14;3.08;;;0.55;;
77948;SDS011;67146;51.236;-0.336;2024-02-21T09:56:45;6.25;;;0.60;;
77948;SDS011;67146;51.236;-0.336;2024-02-21T09:59:16;4.85;;;0.43;;
77948;SDS011;67146;51.236;-0.336;2024-02-21T10:01:44;4.65;;;0.50;;
77948;SDS011;67146;51.236;-0.336;2024-02-21T10:04:12;2.13;;;0.43;;
77948;SDS011;67146;51.236;-0.336;2024-02-21T10:06:37;5.95;;;0.63;;
77948;SDS011;67146;51.236;-0.336;2024-02-21T10:09:07;8.70;;;0.80;;
77948;SDS011;67146;51.236;-0.336;2024-02-21T10:12:28;3.90;;;0.35;;
77948;SDS011;67146;51.236;-0.336;2024-02-21T10:14:41;8.38;;;0.80;;
77948;SDS011;67146;51.236;-0.336;2024-02-21T10:17:27;4.35;;;0.43;;
77948;SDS011;67146;51.236;-0.336;2024-02-21T10:19:52;4.78;;;0.22;;
77948;SDS011;67146;51.236;-0.336;2024-02-21T10:22:23;5.20;;;0.75;;
77948;SDS011;67146;51.236;-0.336;2024-02-21T10:27:36;4.30;;;0.90;;
77948;SDS011;67146;51.236;-0.336;2024-02-21T10:30:07;4.13;;;0.45;;
77948;SDS011;67146;51.236;-0.336;2024-02-21T10:32:37;6.68;;;1.05;;
77948;SDS011;67146;51.236;-0.336;2024-02-21T10:35:25;6.50;;;0.70;;
77948;SDS011;67146;51.236;-0.336;2024-02-21T10:37:52;3.17;;;0.50;;
77948;SDS011;67146;51.236;-0.336;2024-02-21T10:40:20;5.47;;;0.43;;
77948;SDS011;67146;51.236;-0.336;2024-02-21T10:42:50;3.97;;;0.32;;
77948;SDS011;67146;51.236;-0.336;2024-02-21T10:47:47;4.60;;;0.75;;
77948;SDS011;67146;51.236;-0.336;2024-02-21T10:50:16;5.60;;;0.38;;
77948;SDS011;67146;51.236;-0.336;2024-02-21T10:55:21;5.55;;;0.45;;
77948;SDS011;67146;51.236;-0.336;2024-02-21T10:57:52;6.65;;;0.50;;
77948;SDS011;67146;51.236;-0.336;2024-02-21T11:06:46;2.33;;;0.30;;
77948;SDS011;67146;51.236;-0.336;2024-02-21T11:09:12;6.95;;;0.73;;
77948;SDS011;67146;51.236;-0.336;2024-02-21T11:11:38;4.95;;;0.30;;
77948;SDS011;67146;51.236;-0.336;2024-02-21T11:14:08;3.00;;;0.40;;
77948;SDS011;67146;51.236;-0.336;2024-02-21T11:16:41;2.83;;;0.30;;
77948;SDS011;67146;51.236;-0.336;2024-02-21T11:19:08;2.63;;;0.20;;
77948;SDS011;67146;51.236;-0.336;2024-02-21T11:21:35;3.75;;;0.25;;
77948;SDS011;67146;51.236;-0.336;2024-02-21T11:24:08;6.05;;;1.10;;
77948;SDS011;67146;51.236;-0.336;2024-02-21T11:26:37;5.20;;;0.73;;
77948;SDS011;67146;51.236;-0.336;2024-02-21T11:29:14;2.20;;;0.20;;
77948;SDS011;67146;51.236;-0.336;2024-02-21T11:31:48;3.65;;;0.40;;
77948;SDS011;67146;51.236;-0.336;2024-02-21T11:34:20;2.75;;;0.30;;
77948;SDS011;67146;51.236;-0.336;2024-02-21T11:37:34;3.50;;;0.30;;
77948;SDS011;67146;51.236;-0.336;2024-02-21T11:40:02;3.13;;;0.20;;
77948;SDS011;67146;51.236;-0.336;2024-02-21T11:44:56;1.03;;;0.20;;
77948;SDS011;67146;51.236;-0.336;2024-02-21T11:47:22;1.95;;;0.20;;
77948;SDS011;67146;51.236;-0.336;2024-02-21T11:49:48;3.83;;;0.52;;
77948;SDS011;67146;51.236;-0.336;2024-02-21T11:52:15;2.70;;;0.32;;
77948;SDS011;67146;51.236;-0.336;2024-02-21T11:54:41;3.75;;;0.70;;
77948;SDS011;67146;51.236;-0.336;2024-02-21T11:57:07;2.45;;;0.22;;
77948;SDS011;67146;51.236;-0.336;2024-02-21T11:59:33;2.97;;;0.13;;
77948;SDS011;67146;51.236;-0.336;2024-02-21T12:01:59;5.57;;;0.75;;
77948;SDS011;67146;51.236;-0.336;2024-02-21T12:04:25;2.63;;;0.22;;
77948;SDS011;67146;51.236;-0.336;2024-02-21T12:06:52;2.40;;;0.22;;
77948;SDS011;67146;51.236;-0.336;2024-02-21T12:09:18;2.60;;;0.30;;
77948;SDS011;67146;51.236;-0.336;2024-02-21T12:11:43;3.17;;;0.68;;
77948;SDS011;67146;51.236;-0.336;2024-02-21T12:14:09;4.32;;;0.45;;
77948;SDS011;67146;51.236;-0.336;2024-02-21T12:16:35;2.60;;;0.30;;
77948;SDS011;67146;51.236;-0.336;2024-02-21T12:19:02;2.53;;;0.20;;
77948;SDS011;67146;51.236;-0.336;2024-02-21T12:21:32;3.42;;;0.40;;
77948;SDS011;67146;51.236;-0.336;2024-02-21T12:24:11;4.00;;;0.30;;
77948;SDS011;67146;51.236;-0.336;2024-02-21T12:26:40;0.93;;;0.20;;
77948;SDS011;67146;51.236;-0.336;2024-02-21T12:29:06;3.25;;;0.20;;
77948;SDS011;67146;51.236;-0.336;2024-02-21T12:31:32;2.80;;;0.52;;
77948;SDS011;67146;51.236;-0.336;2024-02-21T12:33:57;2.25;;;0.40;;
77948;SDS011;67146;51.236;-0.336;2024-02-21T12:36:22;2.33;;;0.20;;
77948;SDS011;67146;51.236;-0.336;2024-02-21T12:38:55;4.05;;;0.65;;
77948;SDS011;67146;51.236;-0.336;2024-02-21T12:41:21;2.03;;;0.20;;
77948;SDS011;67146;51.236;-0.336;2024-02-21T12:43:46;3.15;;;0.35;;
77948;SDS011;67146;51.236;-0.336;2024-02-21T12:46:12;1.50;;;0.20;;
77948;SDS011;67146;51.236;-0.336;2024-02-21T12:48:37;3.55;;;0.25;;
77948;SDS011;67146;51.236;-0.336;2024-02-21T12:51:03;2.75;;;0.20;;
77948;SDS011;67146;51.236;-0.336;2024-02-21T12:53:32;1.23;;;0.30;;
77948;SDS011;67146;51.236;-0.336;2024-02-21T12:55:57;3.65;;;0.35;;
77948;SDS011;67146;51.236;-0.336;2024-02-21T12:58:25;8.48;;;0.50;;
77948;SDS011;67146;51.236;-0.336;2024-02-21T13:00:56;3.13;;;0.35;;
77948;SDS011;67146;51.236;-0.336;2024-02-21T13:03:22;2.25;;;0.25;;
77948;SDS011;67146;51.236;-0.336;2024-02-21T13:05:47;1.58;;;0.20;;
77948;SDS011;67146;51.236;-0.336;2024-02-21T13:08:13;2.88;;;0.50;;
77948;SDS011;67146;51.236;-0.336;2024-02-21T13:10:38;6.43;;;0.60;;
77948;SDS011;67146;51.236;-0.336;2024-02-21T13:13:04;3.50;;;0.38;;
77948;SDS011;67146;51.236;-0.336;2024-02-21T13:15:29;4.25;;;0.50;;
77948;SDS011;67146;51.236;-0.336;2024-02-21T13:17:58;3.92;;;0.43;;
77948;SDS011;67146;51.236;-0.336;2024-02-21T13:22:50;2.65;;;0.20;;
77948;SDS011;67146;51.236;-0.336;2024-02-21T13:25:15;1.52;;;0.10;;
77948;SDS011;67146;51.236;-0.336;2024-02-21T13:27:46;2.03;;;0.25;;
77948;SDS011;67146;51.236;-0.336;2024-02-21T13:30:15;1.90;;;0.30;;
77948;SDS011;67146;51.236;-0.336;2024-02-21T13:32:44;1.42;;;0.30;;
77948;SDS011;67146;51.236;-0.336;2024-02-21T13:35:12;2.67;;;0.30;;
77948;SDS011;67146;51.236;-0.336;2024-02-21T13:37:38;2.95;;;0.32;;
77948;SDS011;67146;51.236;-0.336;2024-02-21T13:40:04;1.20;;;0.10;;
77948;SDS011;67146;51.236;-0.336;2024-02-21T13:42:30;1.55;;;0.20;;
77948;SDS011;67146;51.236;-0.336;2024-02-21T13:44:56;3.45;;;0.50;;
77948;SDS011;67146;51.236;-0.336;2024-02-21T13:47:21;2.78;;;0.20;;
77948;SDS011;67146;51.236;-0.336;2024-02-21T13:49:47;2.72;;;0.20;;
77948;SDS011;67146;51.236;-0.336;2024-02-21T13:52:13;1.50;;;0.13;;
77948;SDS011;67146;51.236;-0.336;2024-02-21T13:54:39;3.67;;;0.30;;
77948;SDS011;67146;51.236;-0.336;2024-02-21T13:57:04;3.25;;;0.10;;
77948;SDS011;67146;51.236;-0.336;2024-02-21T13:59:30;2.20;;;0.22;;
77948;SDS011;67146;51.236;-0.336;2024-02-21T14:01:55;3.45;;;0.30;;
77948;SDS011;67146;51.236;-0.336;2024-02-21T14:04:31;2.75;;;0.20;;
77948;SDS011;67146;51.236;-0.336;2024-02-21T14:06:56;2.88;;;0.25;;
77948;SDS011;67146;51.236;-0.336;2024-02-21T14:09:21;2.38;;;0.17;;
77948;SDS011;67146;51.236;-0.336;2024-02-21T14:11:47;6.68;;;0.93;;
77948;SDS011;67146;51.236;-0.336;2024-02-21T14:14:12;3.70;;;0.30;;
77948;SDS011;67146;51.236;-0.336;2024-02-21T14:16:40;2.90;;;0.25;;
77948;SDS011;67146;51.236;-0.336;2024-02-21T14:19:05;2.60;;;0.40;;
77948;SDS011;67146;51.236;-0.336;2024-02-21T14:21:32;2.47;;;0.17;;
77948;SDS011;67146;51.236;-0.336;2024-02-21T14:23:57;0.85;;;0.10;;
77948;SDS011;67146;51.236;-0.336;2024-02-21T14:26:27;4.75;;;0.40;;
77948;SDS011;67146;51.236;-0.336;2024-02-21T14:28:53;4.80;;;0.30;;
77948;SDS011;67146;51.236;-0.336;2024-02-21T14:31:18;3.33;;;0.30;;
77948;SDS011;67146;51.236;-0.336;2024-02-21T14:33:44;2.47;;;0.30;;
77948;SDS011;67146;51.236;-0.336;2024-02-21T14:36:19;3.05;;;0.20;;
77948;SDS011;67146;51.236;-0.336;2024-02-21T14:38:49;2.03;;;0.45;;
77948;SDS011;67146;51.236;-0.336;2024-02-21T14:41:14;2.50;;;0.20;;
77948;SDS011;67146;51.236;-0.336;2024-02-21T14:43:40;3.35;;;0.20;;
77948;SDS011;67146;51.236;-0.336;2024-02-21T14:46:05;2.00;;;0.30;;
77948;SDS011;67146;51.236;-0.336;2024-02-21T14:48:34;5.75;;;0.50;;
77948;SDS011;67146;51.236;-0.336;2024-02-21T14:51:00;2.28;;;0.20;;
77948;SDS011;67146;51.236;-0.336;2024-02-21T14:53:25;1.38;;;0.20;;
77948;SDS011;67146;51.236;-0.336;2024-02-21T14:55:51;2.35;;;0.20;;
77948;SDS011;67146;51.236;-0.336;2024-02-21T14:58:17;1.67;;;0.30;;
77948;SDS011;67146;51.236;-0.336;2024-02-21T15:00:44;2.90;;;0.30;;
77948;SDS011;67146;51.236;-0.336;2024-02-21T15:03:11;1.30;;;0.10;;
77948;SDS011;67146;51.236;-0.336;2024-02-21T15:05:37;1.52;;;0.30;;
77948;SDS011;67146;51.236;-0.336;2024-02-21T15:08:04;3.13;;;0.15;;
77948;SDS011;67146;51.236;-0.336;2024-02-21T15:10:36;2.92;;;0.20;;
77948;SDS011;67146;51.236;-0.336;2024-02-21T15:13:05;4.57;;;0.40;;
77948;SDS011;67146;51.236;-0.336;2024-02-21T15:15:30;3.75;;;0.22;;
77948;SDS011;67146;51.236;-0.336;2024-02-21T15:17:56;1.67;;;0.30;;
77948;SDS011;67146;51.236;-0.336;2024-02-21T15:20:21;3.45;;;0.25;;